Terminal Aerodrome Forecast
Issued by NWS Tulsa, OK

Home | Current Version | Previous Version | Text Only | Print | Product List | Glossary On
Versions: 1 2 3 4 5 6 7 8 9 10 11 12 13 14 15 16 17 18 19 20
000
FTUS44 KTSA 011100
TAFTUL
TAF
KTUL 011120Z 0112/0212 VRB03KT P6SM BKN015
      TEMPO 0112/0113 4SM BR SCT015
     FM011600 12005KT P6SM SCT025
     FM020100 VRB03KT P6SM SCT250=

USA.gov is the U.S. government's official web portal to all federal, state and local government web resources and services.